sensor_id;sensor_type;location;lat;lon;timestamp;P1;durP1;ratioP1;P2;durP2;ratioP2
10550;SDS011;5324;50.684;3.862;2022-11-23T00:03:44;8.57;;;2.23;;
10550;SDS011;5324;50.684;3.862;2022-11-23T00:06:10;5.87;;;1.67;;
10550;SDS011;5324;50.684;3.862;2022-11-23T00:08:36;5.77;;;1.90;;
10550;SDS011;5324;50.684;3.862;2022-11-23T00:11:02;6.23;;;1.63;;
10550;SDS011;5324;50.684;3.862;2022-11-23T00:13:28;9.47;;;2.07;;
10550;SDS011;5324;50.684;3.862;2022-11-23T00:15:55;5.70;;;2.00;;
10550;SDS011;5324;50.684;3.862;2022-11-23T00:18:21;7.73;;;1.70;;
10550;SDS011;5324;50.684;3.862;2022-11-23T00:20:47;7.50;;;1.90;;
10550;SDS011;5324;50.684;3.862;2022-11-23T00:23:13;6.77;;;2.00;;
10550;SDS011;5324;50.684;3.862;2022-11-23T00:25:39;2.07;;;1.40;;
10550;SDS011;5324;50.684;3.862;2022-11-23T00:28:05;9.37;;;2.07;;
10550;SDS011;5324;50.684;3.862;2022-11-23T00:30:31;6.37;;;1.73;;
10550;SDS011;5324;50.684;3.862;2022-11-23T00:32:57;4.43;;;1.50;;
10550;SDS011;5324;50.684;3.862;2022-11-23T00:35:24;5.00;;;1.70;;
10550;SDS011;5324;50.684;3.862;2022-11-23T00:37:50;3.40;;;1.83;;
10550;SDS011;5324;50.684;3.862;2022-11-23T00:40:16;6.43;;;1.63;;
10550;SDS011;5324;50.684;3.862;2022-11-23T00:42:41;5.80;;;1.73;;
10550;SDS011;5324;50.684;3.862;2022-11-23T00:45:08;11.20;;;2.70;;
10550;SDS011;5324;50.684;3.862;2022-11-23T00:47:34;5.17;;;1.80;;
10550;SDS011;5324;50.684;3.862;2022-11-23T00:50:01;6.17;;;2.10;;
10550;SDS011;5324;50.684;3.862;2022-11-23T00:52:27;6.13;;;1.77;;
10550;SDS011;5324;50.684;3.862;2022-11-23T00:54:53;5.27;;;1.73;;
10550;SDS011;5324;50.684;3.862;2022-11-23T00:57:19;8.77;;;2.07;;
10550;SDS011;5324;50.684;3.862;2022-11-23T00:59:45;6.73;;;1.53;;
10550;SDS011;5324;50.684;3.862;2022-11-23T01:02:11;3.60;;;1.53;;
10550;SDS011;5324;50.684;3.862;2022-11-23T01:04:37;6.97;;;2.13;;
10550;SDS011;5324;50.684;3.862;2022-11-23T01:07:03;9.77;;;2.30;;
10550;SDS011;5324;50.684;3.862;2022-11-23T01:09:29;7.90;;;1.80;;
10550;SDS011;5324;50.684;3.862;2022-11-23T01:11:55;5.67;;;1.70;;
10550;SDS011;5324;50.684;3.862;2022-11-23T01:14:21;5.57;;;2.17;;
10550;SDS011;5324;50.684;3.862;2022-11-23T01:16:47;9.63;;;2.03;;
10550;SDS011;5324;50.684;3.862;2022-11-23T01:19:14;12.73;;;1.90;;
10550;SDS011;5324;50.684;3.862;2022-11-23T01:21:41;5.97;;;1.77;;
10550;SDS011;5324;50.684;3.862;2022-11-23T01:24:10;9.77;;;2.00;;
10550;SDS011;5324;50.684;3.862;2022-11-23T01:26:36;11.60;;;2.07;;
10550;SDS011;5324;50.684;3.862;2022-11-23T01:29:02;6.07;;;1.90;;
10550;SDS011;5324;50.684;3.862;2022-11-23T01:31:28;8.47;;;2.30;;
10550;SDS011;5324;50.684;3.862;2022-11-23T01:33:58;5.00;;;1.83;;
10550;SDS011;5324;50.684;3.862;2022-11-23T01:36:25;7.07;;;1.57;;
10550;SDS011;5324;50.684;3.862;2022-11-23T01:38:52;10.80;;;1.93;;
10550;SDS011;5324;50.684;3.862;2022-11-23T01:41:19;8.67;;;2.53;;
10550;SDS011;5324;50.684;3.862;2022-11-23T01:43:46;8.07;;;2.00;;
10550;SDS011;5324;50.684;3.862;2022-11-23T01:46:12;10.03;;;1.90;;
10550;SDS011;5324;50.684;3.862;2022-11-23T01:51:05;9.77;;;1.70;;
10550;SDS011;5324;50.684;3.862;2022-11-23T01:53:33;8.40;;;2.10;;
10550;SDS011;5324;50.684;3.862;2022-11-23T01:56:00;7.50;;;2.30;;
10550;SDS011;5324;50.684;3.862;2022-11-23T01:58:28;6.53;;;1.97;;
10550;SDS011;5324;50.684;3.862;2022-11-23T02:00:56;8.23;;;2.07;;
10550;SDS011;5324;50.684;3.862;2022-11-23T02:03:22;8.40;;;2.30;;
10550;SDS011;5324;50.684;3.862;2022-11-23T02:05:49;9.63;;;2.20;;
10550;SDS011;5324;50.684;3.862;2022-11-23T02:08:18;9.50;;;1.80;;
10550;SDS011;5324;50.684;3.862;2022-11-23T02:10:45;6.53;;;1.83;;
10550;SDS011;5324;50.684;3.862;2022-11-23T02:13:11;11.37;;;2.20;;
10550;SDS011;5324;50.684;3.862;2022-11-23T02:15:38;4.70;;;1.87;;
10550;SDS011;5324;50.684;3.862;2022-11-23T02:18:09;6.20;;;2.37;;
10550;SDS011;5324;50.684;3.862;2022-11-23T02:20:36;7.23;;;1.90;;
10550;SDS011;5324;50.684;3.862;2022-11-23T02:28:14;9.57;;;2.50;;
10550;SDS011;5324;50.684;3.862;2022-11-23T02:30:40;9.97;;;2.60;;
10550;SDS011;5324;50.684;3.862;2022-11-23T02:33:07;6.70;;;2.20;;
10550;SDS011;5324;50.684;3.862;2022-11-23T02:35:33;4.57;;;1.93;;
10550;SDS011;5324;50.684;3.862;2022-11-23T02:38:00;4.03;;;1.93;;
10550;SDS011;5324;50.684;3.862;2022-11-23T02:40:28;6.80;;;2.30;;
10550;SDS011;5324;50.684;3.862;2022-11-23T02:42:55;8.03;;;2.30;;
10550;SDS011;5324;50.684;3.862;2022-11-23T02:46:03;8.70;;;2.40;;
10550;SDS011;5324;50.684;3.862;2022-11-23T02:48:10;6.80;;;2.33;;
10550;SDS011;5324;50.684;3.862;2022-11-23T02:50:36;3.83;;;1.70;;
10550;SDS011;5324;50.684;3.862;2022-11-23T02:53:02;7.40;;;2.43;;
10550;SDS011;5324;50.684;3.862;2022-11-23T02:55:28;7.30;;;2.07;;
10550;SDS011;5324;50.684;3.862;2022-11-23T02:57:54;4.07;;;1.90;;
10550;SDS011;5324;50.684;3.862;2022-11-23T03:00:20;5.30;;;2.00;;
10550;SDS011;5324;50.684;3.862;2022-11-23T03:02:46;5.33;;;2.23;;
10550;SDS011;5324;50.684;3.862;2022-11-23T03:05:12;8.60;;;2.33;;
10550;SDS011;5324;50.684;3.862;2022-11-23T03:07:38;6.63;;;1.93;;
10550;SDS011;5324;50.684;3.862;2022-11-23T03:10:04;5.27;;;1.60;;
10550;SDS011;5324;50.684;3.862;2022-11-23T03:12:31;9.27;;;2.00;;
10550;SDS011;5324;50.684;3.862;2022-11-23T03:14:57;6.23;;;2.17;;
10550;SDS011;5324;50.684;3.862;2022-11-23T03:17:23;6.70;;;2.10;;
10550;SDS011;5324;50.684;3.862;2022-11-23T03:19:49;7.80;;;1.70;;
10550;SDS011;5324;50.684;3.862;2022-11-23T03:22:15;9.17;;;2.60;;
10550;SDS011;5324;50.684;3.862;2022-11-23T03:24:41;10.10;;;2.13;;
10550;SDS011;5324;50.684;3.862;2022-11-23T03:27:07;7.07;;;1.70;;
10550;SDS011;5324;50.684;3.862;2022-11-23T03:29:33;9.70;;;1.77;;
10550;SDS011;5324;50.684;3.862;2022-11-23T03:31:59;10.57;;;1.90;;
10550;SDS011;5324;50.684;3.862;2022-11-23T03:34:25;8.53;;;2.07;;
10550;SDS011;5324;50.684;3.862;2022-11-23T03:36:51;6.70;;;1.80;;
10550;SDS011;5324;50.684;3.862;2022-11-23T03:39:17;10.60;;;2.23;;
10550;SDS011;5324;50.684;3.862;2022-11-23T03:41:43;6.80;;;1.87;;
10550;SDS011;5324;50.684;3.862;2022-11-23T03:44:09;6.87;;;1.90;;
10550;SDS011;5324;50.684;3.862;2022-11-23T03:46:35;8.33;;;2.07;;
10550;SDS011;5324;50.684;3.862;2022-11-23T03:49:01;8.30;;;2.00;;
10550;SDS011;5324;50.684;3.862;2022-11-23T03:51:27;9.37;;;2.10;;
10550;SDS011;5324;50.684;3.862;2022-11-23T03:53:53;8.33;;;1.97;;
10550;SDS011;5324;50.684;3.862;2022-11-23T03:56:19;6.47;;;2.53;;
10550;SDS011;5324;50.684;3.862;2022-11-23T03:58:45;6.47;;;1.97;;
10550;SDS011;5324;50.684;3.862;2022-11-23T04:01:11;8.20;;;2.43;;
10550;SDS011;5324;50.684;3.862;2022-11-23T04:03:37;10.73;;;2.27;;
10550;SDS011;5324;50.684;3.862;2022-11-23T04:06:03;8.00;;;2.30;;
10550;SDS011;5324;50.684;3.862;2022-11-23T04:08:29;5.90;;;2.00;;
10550;SDS011;5324;50.684;3.862;2022-11-23T04:10:55;8.43;;;2.07;;
10550;SDS011;5324;50.684;3.862;2022-11-23T04:13:22;8.67;;;2.10;;
10550;SDS011;5324;50.684;3.862;2022-11-23T04:15:48;8.80;;;2.10;;
10550;SDS011;5324;50.684;3.862;2022-11-23T04:18:14;6.80;;;2.17;;
10550;SDS011;5324;50.684;3.862;2022-11-23T04:20:40;8.53;;;2.63;;
10550;SDS011;5324;50.684;3.862;2022-11-23T04:23:06;6.50;;;2.30;;
10550;SDS011;5324;50.684;3.862;2022-11-23T04:25:32;10.33;;;2.50;;
10550;SDS011;5324;50.684;3.862;2022-11-23T04:27:58;12.10;;;2.80;;
10550;SDS011;5324;50.684;3.862;2022-11-23T04:30:24;8.60;;;2.23;;
10550;SDS011;5324;50.684;3.862;2022-11-23T04:32:50;5.10;;;1.90;;
10550;SDS011;5324;50.684;3.862;2022-11-23T04:35:16;7.37;;;2.20;;
10550;SDS011;5324;50.684;3.862;2022-11-23T04:37:43;7.33;;;2.13;;
10550;SDS011;5324;50.684;3.862;2022-11-23T04:40:09;7.07;;;2.40;;
10550;SDS011;5324;50.684;3.862;2022-11-23T04:42:35;6.73;;;1.90;;
10550;SDS011;5324;50.684;3.862;2022-11-23T04:45:01;7.03;;;2.00;;
10550;SDS011;5324;50.684;3.862;2022-11-23T04:47:27;5.87;;;2.07;;
10550;SDS011;5324;50.684;3.862;2022-11-23T04:49:53;8.67;;;2.23;;
10550;SDS011;5324;50.684;3.862;2022-11-23T04:52:19;5.50;;;2.50;;
10550;SDS011;5324;50.684;3.862;2022-11-23T04:54:45;8.70;;;2.57;;
10550;SDS011;5324;50.684;3.862;2022-11-23T04:57:11;9.80;;;2.07;;
10550;SDS011;5324;50.684;3.862;2022-11-23T04:59:37;4.50;;;1.80;;
10550;SDS011;5324;50.684;3.862;2022-11-23T05:02:03;4.53;;;1.90;;
10550;SDS011;5324;50.684;3.862;2022-11-23T05:04:29;6.37;;;2.40;;
10550;SDS011;5324;50.684;3.862;2022-11-23T05:06:55;7.43;;;1.90;;
10550;SDS011;5324;50.684;3.862;2022-11-23T05:09:21;5.93;;;2.30;;
10550;SDS011;5324;50.684;3.862;2022-11-23T05:11:47;7.47;;;2.33;;
10550;SDS011;5324;50.684;3.862;2022-11-23T05:14:13;5.73;;;2.10;;
10550;SDS011;5324;50.684;3.862;2022-11-23T05:16:39;4.37;;;1.87;;
10550;SDS011;5324;50.684;3.862;2022-11-23T05:19:05;7.73;;;1.77;;
10550;SDS011;5324;50.684;3.862;2022-11-23T05:21:31;14.00;;;3.07;;
10550;SDS011;5324;50.684;3.862;2022-11-23T05:23:57;9.53;;;2.93;;
10550;SDS011;5324;50.684;3.862;2022-11-23T05:26:23;8.97;;;2.47;;
10550;SDS011;5324;50.684;3.862;2022-11-23T05:28:49;7.90;;;2.53;;
10550;SDS011;5324;50.684;3.862;2022-11-23T05:31:15;7.90;;;2.77;;
10550;SDS011;5324;50.684;3.862;2022-11-23T05:33:41;9.83;;;2.40;;
10550;SDS011;5324;50.684;3.862;2022-11-23T05:36:07;12.03;;;2.90;;
10550;SDS011;5324;50.684;3.862;2022-11-23T05:38:34;9.57;;;2.57;;
10550;SDS011;5324;50.684;3.862;2022-11-23T05:41:00;8.87;;;2.53;;
10550;SDS011;5324;50.684;3.862;2022-11-23T05:43:26;10.27;;;2.97;;
10550;SDS011;5324;50.684;3.862;2022-11-23T05:45:52;8.27;;;2.37;;
10550;SDS011;5324;50.684;3.862;2022-11-23T05:48:18;6.93;;;2.73;;
10550;SDS011;5324;50.684;3.862;2022-11-23T05:50:43;6.37;;;3.10;;
10550;SDS011;5324;50.684;3.862;2022-11-23T05:53:09;5.00;;;2.20;;
10550;SDS011;5324;50.684;3.862;2022-11-23T05:55:35;7.50;;;2.23;;
10550;SDS011;5324;50.684;3.862;2022-11-23T05:58:01;10.33;;;2.50;;
10550;SDS011;5324;50.684;3.862;2022-11-23T06:00:27;11.67;;;3.17;;
10550;SDS011;5324;50.684;3.862;2022-11-23T06:02:57;9.80;;;3.00;;
10550;SDS011;5324;50.684;3.862;2022-11-23T06:05:23;7.17;;;2.10;;
10550;SDS011;5324;50.684;3.862;2022-11-23T06:07:51;10.90;;;2.70;;
10550;SDS011;5324;50.684;3.862;2022-11-23T06:10:17;9.20;;;2.60;;
10550;SDS011;5324;50.684;3.862;2022-11-23T06:12:44;7.60;;;2.23;;
10550;SDS011;5324;50.684;3.862;2022-11-23T06:15:10;9.53;;;2.67;;
10550;SDS011;5324;50.684;3.862;2022-11-23T06:17:36;7.97;;;2.23;;
10550;SDS011;5324;50.684;3.862;2022-11-23T06:20:06;8.67;;;2.60;;
10550;SDS011;5324;50.684;3.862;2022-11-23T06:22:32;6.27;;;2.37;;
10550;SDS011;5324;50.684;3.862;2022-11-23T06:24:59;13.90;;;2.47;;
10550;SDS011;5324;50.684;3.862;2022-11-23T06:27:25;7.67;;;2.53;;
10550;SDS011;5324;50.684;3.862;2022-11-23T06:29:51;7.27;;;2.63;;
10550;SDS011;5324;50.684;3.862;2022-11-23T06:32:17;6.70;;;2.43;;
10550;SDS011;5324;50.684;3.862;2022-11-23T06:34:43;10.87;;;2.70;;
10550;SDS011;5324;50.684;3.862;2022-11-23T06:37:09;7.20;;;2.77;;
10550;SDS011;5324;50.684;3.862;2022-11-23T06:39:35;10.70;;;2.93;;
10550;SDS011;5324;50.684;3.862;2022-11-23T06:42:01;9.23;;;2.50;;
10550;SDS011;5324;50.684;3.862;2022-11-23T06:44:27;7.93;;;2.80;;
10550;SDS011;5324;50.684;3.862;2022-11-23T06:46:53;7.23;;;2.33;;
10550;SDS011;5324;50.684;3.862;2022-11-23T06:49:19;8.43;;;3.17;;
10550;SDS011;5324;50.684;3.862;2022-11-23T06:51:46;7.73;;;2.47;;
10550;SDS011;5324;50.684;3.862;2022-11-23T06:54:12;9.77;;;2.90;;
10550;SDS011;5324;50.684;3.862;2022-11-23T06:56:38;8.07;;;3.00;;
10550;SDS011;5324;50.684;3.862;2022-11-23T06:59:04;7.97;;;2.20;;
10550;SDS011;5324;50.684;3.862;2022-11-23T07:01:30;8.07;;;2.90;;
10550;SDS011;5324;50.684;3.862;2022-11-23T07:03:56;8.90;;;2.47;;
10550;SDS011;5324;50.684;3.862;2022-11-23T07:06:22;5.83;;;2.17;;
10550;SDS011;5324;50.684;3.862;2022-11-23T07:08:48;8.30;;;2.70;;
10550;SDS011;5324;50.684;3.862;2022-11-23T07:11:14;11.53;;;2.50;;
10550;SDS011;5324;50.684;3.862;2022-11-23T07:13:40;8.27;;;2.30;;
10550;SDS011;5324;50.684;3.862;2022-11-23T07:16:06;6.70;;;2.50;;
10550;SDS011;5324;50.684;3.862;2022-11-23T07:18:33;6.43;;;1.87;;
10550;SDS011;5324;50.684;3.862;2022-11-23T07:20:59;8.30;;;2.80;;
10550;SDS011;5324;50.684;3.862;2022-11-23T07:23:25;9.23;;;2.30;;
10550;SDS011;5324;50.684;3.862;2022-11-23T07:25:51;4.77;;;2.30;;
10550;SDS011;5324;50.684;3.862;2022-11-23T07:28:17;6.10;;;2.90;;
10550;SDS011;5324;50.684;3.862;2022-11-23T07:30:43;9.67;;;2.97;;
10550;SDS011;5324;50.684;3.862;2022-11-23T07:33:10;6.67;;;2.10;;
10550;SDS011;5324;50.684;3.862;2022-11-23T07:35:37;8.17;;;3.00;;
10550;SDS011;5324;50.684;3.862;2022-11-23T07:38:04;7.13;;;2.33;;
10550;SDS011;5324;50.684;3.862;2022-11-23T07:40:34;5.47;;;2.17;;
10550;SDS011;5324;50.684;3.862;2022-11-23T07:43:01;5.30;;;2.33;;
10550;SDS011;5324;50.684;3.862;2022-11-23T07:45:28;6.53;;;2.37;;
10550;SDS011;5324;50.684;3.862;2022-11-23T07:47:58;8.03;;;2.23;;
10550;SDS011;5324;50.684;3.862;2022-11-23T07:50:24;6.93;;;2.23;;
10550;SDS011;5324;50.684;3.862;2022-11-23T07:52:50;8.77;;;2.83;;
10550;SDS011;5324;50.684;3.862;2022-11-23T07:55:16;7.47;;;1.73;;
10550;SDS011;5324;50.684;3.862;2022-11-23T07:57:42;3.73;;;1.90;;
10550;SDS011;5324;50.684;3.862;2022-11-23T08:00:08;7.77;;;2.23;;
10550;SDS011;5324;50.684;3.862;2022-11-23T08:02:34;4.33;;;2.10;;
10550;SDS011;5324;50.684;3.862;2022-11-23T08:05:00;5.43;;;2.10;;
10550;SDS011;5324;50.684;3.862;2022-11-23T08:07:26;8.03;;;2.53;;
10550;SDS011;5324;50.684;3.862;2022-11-23T08:09:52;8.57;;;2.47;;
10550;SDS011;5324;50.684;3.862;2022-11-23T08:12:18;10.93;;;2.30;;
10550;SDS011;5324;50.684;3.862;2022-11-23T08:14:45;7.00;;;2.53;;
10550;SDS011;5324;50.684;3.862;2022-11-23T08:17:11;5.30;;;2.23;;
10550;SDS011;5324;50.684;3.862;2022-11-23T08:19:37;5.40;;;2.60;;
10550;SDS011;5324;50.684;3.862;2022-11-23T08:22:03;12.97;;;2.80;;
10550;SDS011;5324;50.684;3.862;2022-11-23T08:24:29;7.27;;;2.40;;
10550;SDS011;5324;50.684;3.862;2022-11-23T08:26:55;4.90;;;2.73;;
10550;SDS011;5324;50.684;3.862;2022-11-23T08:29:21;7.30;;;3.00;;
10550;SDS011;5324;50.684;3.862;2022-11-23T08:31:47;8.63;;;2.90;;
10550;SDS011;5324;50.684;3.862;2022-11-23T08:34:13;9.47;;;2.37;;
10550;SDS011;5324;50.684;3.862;2022-11-23T08:36:39;9.33;;;2.57;;
10550;SDS011;5324;50.684;3.862;2022-11-23T08:39:05;10.53;;;2.30;;
10550;SDS011;5324;50.684;3.862;2022-11-23T08:41:32;14.00;;;3.00;;
10550;SDS011;5324;50.684;3.862;2022-11-23T08:43:58;17.10;;;3.53;;
10550;SDS011;5324;50.684;3.862;2022-11-23T08:46:24;7.70;;;3.00;;
10550;SDS011;5324;50.684;3.862;2022-11-23T08:48:50;11.47;;;2.73;;
10550;SDS011;5324;50.684;3.862;2022-11-23T08:51:16;6.40;;;3.10;;
10550;SDS011;5324;50.684;3.862;2022-11-23T08:53:46;10.33;;;2.80;;
10550;SDS011;5324;50.684;3.862;2022-11-23T08:56:12;4.73;;;2.43;;
10550;SDS011;5324;50.684;3.862;2022-11-23T08:58:38;7.93;;;2.83;;
10550;SDS011;5324;50.684;3.862;2022-11-23T09:01:11;10.67;;;3.00;;
10550;SDS011;5324;50.684;3.862;2022-11-23T09:03:37;5.00;;;2.50;;
10550;SDS011;5324;50.684;3.862;2022-11-23T09:06:04;6.00;;;2.83;;
10550;SDS011;5324;50.684;3.862;2022-11-23T09:08:30;6.27;;;2.63;;
10550;SDS011;5324;50.684;3.862;2022-11-23T09:10:59;6.73;;;2.67;;
10550;SDS011;5324;50.684;3.862;2022-11-23T09:13:26;10.37;;;3.17;;
10550;SDS011;5324;50.684;3.862;2022-11-23T09:15:55;5.43;;;2.43;;
10550;SDS011;5324;50.684;3.862;2022-11-23T09:18:21;6.90;;;2.77;;
10550;SDS011;5324;50.684;3.862;2022-11-23T09:20:47;5.93;;;2.40;;
10550;SDS011;5324;50.684;3.862;2022-11-23T09:23:13;7.13;;;2.70;;
10550;SDS011;5324;50.684;3.862;2022-11-23T09:25:39;4.77;;;2.60;;
10550;SDS011;5324;50.684;3.862;2022-11-23T09:28:07;5.00;;;2.40;;
10550;SDS011;5324;50.684;3.862;2022-11-23T09:30:33;5.67;;;2.40;;
10550;SDS011;5324;50.684;3.862;2022-11-23T09:32:59;3.13;;;1.87;;
10550;SDS011;5324;50.684;3.862;2022-11-23T09:35:25;4.57;;;2.23;;
10550;SDS011;5324;50.684;3.862;2022-11-23T09:37:55;4.97;;;2.27;;
10550;SDS011;5324;50.684;3.862;2022-11-23T09:40:21;6.80;;;2.10;;
10550;SDS011;5324;50.684;3.862;2022-11-23T09:45:56;6.90;;;2.27;;
10550;SDS011;5324;50.684;3.862;2022-11-23T09:50:47;3.87;;;2.20;;
10550;SDS011;5324;50.684;3.862;2022-11-23T09:53:16;6.23;;;2.10;;
10550;SDS011;5324;50.684;3.862;2022-11-23T09:55:43;3.97;;;2.23;;
10550;SDS011;5324;50.684;3.862;2022-11-23T09:58:15;8.03;;;2.20;;
10550;SDS011;5324;50.684;3.862;2022-11-23T10:01:00;4.13;;;2.33;;
10550;SDS011;5324;50.684;3.862;2022-11-23T10:03:27;4.73;;;2.13;;
10550;SDS011;5324;50.684;3.862;2022-11-23T10:13:26;5.73;;;2.37;;
10550;SDS011;5324;50.684;3.862;2022-11-23T10:18:35;4.30;;;2.40;;
10550;SDS011;5324;50.684;3.862;2022-11-23T10:26:07;3.07;;;1.80;;
10550;SDS011;5324;50.684;3.862;2022-11-23T10:28:34;2.77;;;1.80;;
10550;SDS011;5324;50.684;3.862;2022-11-23T10:31:14;4.17;;;2.00;;
10550;SDS011;5324;50.684;3.862;2022-11-23T10:33:54;6.10;;;2.23;;
10550;SDS011;5324;50.684;3.862;2022-11-23T10:36:22;7.17;;;1.80;;
10550;SDS011;5324;50.684;3.862;2022-11-23T10:38:48;6.40;;;2.40;;
10550;SDS011;5324;50.684;3.862;2022-11-23T10:41:15;3.83;;;1.87;;
10550;SDS011;5324;50.684;3.862;2022-11-23T10:43:50;6.63;;;2.23;;
10550;SDS011;5324;50.684;3.862;2022-11-23T10:46:24;2.67;;;1.80;;
10550;SDS011;5324;50.684;3.862;2022-11-23T10:48:52;3.17;;;1.77;;
10550;SDS011;5324;50.684;3.862;2022-11-23T10:51:20;6.33;;;1.67;;
10550;SDS011;5324;50.684;3.862;2022-11-23T10:53:52;6.83;;;2.17;;
10550;SDS011;5324;50.684;3.862;2022-11-23T10:56:19;6.20;;;1.93;;
10550;SDS011;5324;50.684;3.862;2022-11-23T10:58:45;8.00;;;2.30;;
10550;SDS011;5324;50.684;3.862;2022-11-23T11:03:37;5.33;;;1.93;;
10550;SDS011;5324;50.684;3.862;2022-11-23T11:06:03;3.93;;;1.80;;
10550;SDS011;5324;50.684;3.862;2022-11-23T11:08:30;5.63;;;2.37;;
10550;SDS011;5324;50.684;3.862;2022-11-23T11:10:58;4.00;;;1.53;;
10550;SDS011;5324;50.684;3.862;2022-11-23T11:13:44;5.37;;;2.03;;
10550;SDS011;5324;50.684;3.862;2022-11-23T11:16:30;5.27;;;1.80;;
10550;SDS011;5324;50.684;3.862;2022-11-23T11:18:56;8.10;;;2.10;;
10550;SDS011;5324;50.684;3.862;2022-11-23T11:21:24;4.63;;;1.50;;
10550;SDS011;5324;50.684;3.862;2022-11-23T11:26:21;2.87;;;1.50;;
10550;SDS011;5324;50.684;3.862;2022-11-23T11:28:48;3.63;;;1.63;;
10550;SDS011;5324;50.684;3.862;2022-11-23T11:33:43;5.17;;;1.53;;
10550;SDS011;5324;50.684;3.862;2022-11-23T11:36:11;4.67;;;1.47;;
10550;SDS011;5324;50.684;3.862;2022-11-23T11:38:38;2.53;;;1.67;;
10550;SDS011;5324;50.684;3.862;2022-11-23T11:41:07;2.97;;;1.40;;
10550;SDS011;5324;50.684;3.862;2022-11-23T11:43:37;2.40;;;1.60;;
10550;SDS011;5324;50.684;3.862;2022-11-23T11:48:35;5.20;;;2.00;;
10550;SDS011;5324;50.684;3.862;2022-11-23T11:51:04;3.33;;;1.53;;
10550;SDS011;5324;50.684;3.862;2022-11-23T11:56:27;2.87;;;1.90;;
10550;SDS011;5324;50.684;3.862;2022-11-23T11:58:58;4.40;;;1.70;;
10550;SDS011;5324;50.684;3.862;2022-11-23T12:01:35;4.97;;;2.00;;
10550;SDS011;5324;50.684;3.862;2022-11-23T12:04:05;3.73;;;1.80;;
10550;SDS011;5324;50.684;3.862;2022-11-23T12:06:41;3.03;;;1.77;;
10550;SDS011;5324;50.684;3.862;2022-11-23T12:09:10;3.57;;;1.50;;
10550;SDS011;5324;50.684;3.862;2022-11-23T12:11:37;2.23;;;1.60;;
10550;SDS011;5324;50.684;3.862;2022-11-23T12:14:03;1.77;;;1.20;;
10550;SDS011;5324;50.684;3.862;2022-11-23T12:19:08;2.20;;;1.17;;
10550;SDS011;5324;50.684;3.862;2022-11-23T12:32:08;6.10;;;2.00;;
10550;SDS011;5324;50.684;3.862;2022-11-23T12:34:59;3.33;;;1.83;;
10550;SDS011;5324;50.684;3.862;2022-11-23T12:40:18;2.37;;;1.17;;
10550;SDS011;5324;50.684;3.862;2022-11-23T12:42:49;1.43;;;1.30;;
10550;SDS011;5324;50.684;3.862;2022-11-23T12:50:42;4.83;;;1.60;;
10550;SDS011;5324;50.684;3.862;2022-11-23T12:55:51;1.77;;;1.30;;
10550;SDS011;5324;50.684;3.862;2022-11-23T13:03:50;1.77;;;1.30;;
10550;SDS011;5324;50.684;3.862;2022-11-23T13:21:53;1.53;;;1.07;;
10550;SDS011;5324;50.684;3.862;2022-11-23T13:29:45;2.23;;;1.40;;
10550;SDS011;5324;50.684;3.862;2022-11-23T13:34:57;2.27;;;1.60;;
10550;SDS011;5324;50.684;3.862;2022-11-23T13:37:23;1.73;;;1.27;;
10550;SDS011;5324;50.684;3.862;2022-11-23T13:42:15;2.00;;;1.27;;
10550;SDS011;5324;50.684;3.862;2022-11-23T13:44:42;3.03;;;1.30;;
10550;SDS011;5324;50.684;3.862;2022-11-23T13:49:44;3.03;;;2.10;;
10550;SDS011;5324;50.684;3.862;2022-11-23T13:57:25;2.53;;;1.27;;
10550;SDS011;5324;50.684;3.862;2022-11-23T13:59:51;1.40;;;1.30;;
10550;SDS011;5324;50.684;3.862;2022-11-23T14:02:22;1.87;;;1.40;;
10550;SDS011;5324;50.684;3.862;2022-11-23T14:04:49;1.33;;;1.23;;
10550;SDS011;5324;50.684;3.862;2022-11-23T14:19:41;1.53;;;1.43;;
10550;SDS011;5324;50.684;3.862;2022-11-23T14:22:30;3.13;;;2.20;;
10550;SDS011;5324;50.684;3.862;2022-11-23T14:25:02;4.33;;;2.77;;
10550;SDS011;5324;50.684;3.862;2022-11-23T14:27:45;4.43;;;2.90;;
10550;SDS011;5324;50.684;3.862;2022-11-23T14:30:29;6.90;;;4.00;;
10550;SDS011;5324;50.684;3.862;2022-11-23T14:35:55;3.37;;;2.63;;
10550;SDS011;5324;50.684;3.862;2022-11-23T14:38:34;3.20;;;1.93;;
10550;SDS011;5324;50.684;3.862;2022-11-23T14:41:12;4.40;;;1.83;;
10550;SDS011;5324;50.684;3.862;2022-11-23T14:43:39;2.77;;;2.07;;
10550;SDS011;5324;50.684;3.862;2022-11-23T14:46:12;4.30;;;1.53;;
10550;SDS011;5324;50.684;3.862;2022-11-23T14:48:38;2.00;;;1.63;;
10550;SDS011;5324;50.684;3.862;2022-11-23T14:51:05;2.57;;;1.67;;
10550;SDS011;5324;50.684;3.862;2022-11-23T14:53:33;2.73;;;1.90;;
10550;SDS011;5324;50.684;3.862;2022-11-23T14:55:59;2.97;;;1.63;;
10550;SDS011;5324;50.684;3.862;2022-11-23T14:58:26;2.63;;;1.80;;
10550;SDS011;5324;50.684;3.862;2022-11-23T15:00:57;2.67;;;1.50;;
10550;SDS011;5324;50.684;3.862;2022-11-23T15:03:25;2.37;;;1.60;;
10550;SDS011;5324;50.684;3.862;2022-11-23T15:05:54;4.57;;;1.40;;
10550;SDS011;5324;50.684;3.862;2022-11-23T15:08:26;2.63;;;1.40;;
10550;SDS011;5324;50.684;3.862;2022-11-23T15:13:24;1.90;;;1.30;;
10550;SDS011;5324;50.684;3.862;2022-11-23T15:15:54;2.60;;;1.90;;
10550;SDS011;5324;50.684;3.862;2022-11-23T15:20:53;3.90;;;1.30;;
10550;SDS011;5324;50.684;3.862;2022-11-23T15:23:19;6.00;;;1.90;;
10550;SDS011;5324;50.684;3.862;2022-11-23T15:25:50;6.73;;;2.87;;
10550;SDS011;5324;50.684;3.862;2022-11-23T15:28:16;3.67;;;3.37;;
10550;SDS011;5324;50.684;3.862;2022-11-23T15:30:43;4.20;;;3.80;;
10550;SDS011;5324;50.684;3.862;2022-11-23T15:33:09;4.73;;;3.70;;
10550;SDS011;5324;50.684;3.862;2022-11-23T15:35:36;3.07;;;2.77;;
10550;SDS011;5324;50.684;3.862;2022-11-23T15:38:03;3.60;;;2.23;;
10550;SDS011;5324;50.684;3.862;2022-11-23T15:40:32;4.37;;;2.30;;
10550;SDS011;5324;50.684;3.862;2022-11-23T15:42:59;2.93;;;2.10;;
10550;SDS011;5324;50.684;3.862;2022-11-23T15:45:32;2.13;;;1.93;;
10550;SDS011;5324;50.684;3.862;2022-11-23T15:48:08;2.57;;;2.17;;
10550;SDS011;5324;50.684;3.862;2022-11-23T15:50:43;5.00;;;2.40;;
10550;SDS011;5324;50.684;3.862;2022-11-23T15:53:11;2.70;;;2.30;;
10550;SDS011;5324;50.684;3.862;2022-11-23T15:55:37;6.10;;;2.30;;
10550;SDS011;5324;50.684;3.862;2022-11-23T15:58:04;2.40;;;2.20;;
10550;SDS011;5324;50.684;3.862;2022-11-23T16:00:31;2.93;;;2.30;;
10550;SDS011;5324;50.684;3.862;2022-11-23T16:05:42;4.00;;;2.53;;
10550;SDS011;5324;50.684;3.862;2022-11-23T16:08:21;3.23;;;2.17;;
10550;SDS011;5324;50.684;3.862;2022-11-23T16:10:52;4.03;;;2.30;;
10550;SDS011;5324;50.684;3.862;2022-11-23T16:13:33;2.30;;;2.00;;
10550;SDS011;5324;50.684;3.862;2022-11-23T16:15:59;4.40;;;2.50;;
10550;SDS011;5324;50.684;3.862;2022-11-23T16:18:25;4.27;;;2.10;;
10550;SDS011;5324;50.684;3.862;2022-11-23T16:20:55;3.30;;;1.87;;
10550;SDS011;5324;50.684;3.862;2022-11-23T16:23:23;4.13;;;2.60;;
10550;SDS011;5324;50.684;3.862;2022-11-23T16:26:00;2.07;;;1.80;;
10550;SDS011;5324;50.684;3.862;2022-11-23T16:28:27;3.43;;;2.00;;
10550;SDS011;5324;50.684;3.862;2022-11-23T16:30:54;2.50;;;2.17;;
10550;SDS011;5324;50.684;3.862;2022-11-23T16:33:21;5.40;;;2.43;;
10550;SDS011;5324;50.684;3.862;2022-11-23T16:35:48;7.93;;;2.30;;
10550;SDS011;5324;50.684;3.862;2022-11-23T16:38:14;3.93;;;2.30;;
10550;SDS011;5324;50.684;3.862;2022-11-23T16:40:40;3.57;;;2.50;;
10550;SDS011;5324;50.684;3.862;2022-11-23T16:43:10;4.97;;;2.20;;
10550;SDS011;5324;50.684;3.862;2022-11-23T16:45:40;4.67;;;1.80;;
10550;SDS011;5324;50.684;3.862;2022-11-23T16:48:52;2.90;;;1.90;;
10550;SDS011;5324;50.684;3.862;2022-11-23T16:50:55;4.27;;;2.00;;
10550;SDS011;5324;50.684;3.862;2022-11-23T16:53:21;6.30;;;2.57;;
10550;SDS011;5324;50.684;3.862;2022-11-23T16:55:50;8.57;;;2.13;;
10550;SDS011;5324;50.684;3.862;2022-11-23T16:58:17;4.27;;;1.93;;
10550;SDS011;5324;50.684;3.862;2022-11-23T17:00:43;3.37;;;2.10;;
10550;SDS011;5324;50.684;3.862;2022-11-23T17:03:28;7.57;;;2.90;;
10550;SDS011;5324;50.684;3.862;2022-11-23T17:05:54;3.30;;;2.40;;
10550;SDS011;5324;50.684;3.862;2022-11-23T17:08:20;8.40;;;2.20;;
10550;SDS011;5324;50.684;3.862;2022-11-23T17:10:46;5.70;;;2.23;;
10550;SDS011;5324;50.684;3.862;2022-11-23T17:13:22;3.67;;;2.27;;